Time;durP1;ratioP1;P1;durP2;ratioP2;P2;SDS_P1;SDS_P2;PMS_P1;PMS_P2;Temp;Humidity;BMP_temperature;BMP_pressure;BME280_temperature;BME280_humidity;BME280_pressure;Samples;Min_cycle;Max_cycle;Signal;HPM_P1;HPM_P2
2022/03/12 00:00:27;;;;;;;11.10;4.60;;;5.30;64.20;;;;;;5036149;28;20032;-52
2022/03/12 00:02:54;;;;;;;7.35;3.15;;;5.30;63.80;;;;;;5036121;28;20036;-50
2022/03/12 00:05:20;;;;;;;8.35;3.65;;;5.30;63.50;;;;;;5035966;28;20052;-54
2022/03/12 00:07:46;;;;;;;8.55;3.60;;;5.30;63.30;;;;;;5034720;28;20080;-49
2022/03/12 00:10:16;;;;;;;13.88;4.45;;;5.20;63.70;;;;;;5034743;28;20025;-48
2022/03/12 00:12:42;;;;;;;10.60;4.47;;;5.20;63.50;;;;;;5036288;28;20022;-51
2022/03/12 00:15:10;;;;;;;6.88;3.38;;;5.20;64.00;;;;;;5035973;28;20479;-54
2022/03/12 00:17:39;;;;;;;12.02;4.68;;;5.20;64.20;;;;;;5037099;28;20030;-53
2022/03/12 00:20:12;;;;;;;7.28;3.15;;;5.20;66.40;;;;;;5034602;28;20373;-47
2022/03/12 00:22:47;;;;;;;8.88;3.83;;;5.10;66.00;;;;;;5035816;28;20030;-50
2022/03/12 00:25:18;;;;;;;13.90;4.95;;;5.10;66.00;;;;;;5035655;28;20499;-48
2022/03/12 00:27:44;;;;;;;;;;;5.00;68.30;;;;;;5035711;28;20112;-49
2022/03/12 00:30:11;;;;;;;8.85;3.67;;;5.00;68.90;;;;;;5034343;28;19948;-51
2022/03/12 00:32:37;;;;;;;8.00;3.47;;;4.90;69.30;;;;;;5034292;28;20056;-48
2022/03/12 00:35:04;;;;;;;6.60;3.15;;;4.80;70.20;;;;;;5034191;28;20072;-52
2022/03/12 00:37:30;;;;;;;7.38;3.97;;;4.80;69.40;;;;;;5035513;28;20502;-47
2022/03/12 00:39:56;;;;;;;8.85;3.70;;;4.70;68.60;;;;;;5034231;28;20029;-47
2022/03/12 00:42:22;;;;;;;5.75;3.10;;;4.70;69.60;;;;;;5035598;28;20025;-48
2022/03/12 00:44:48;;;;;;;7.70;3.25;;;4.60;68.70;;;;;;5035348;28;20045;-48
2022/03/12 00:47:14;;;;;;;15.65;3.40;;;4.60;68.00;;;;;;5034865;28;20030;-47
2022/03/12 00:49:40;;;;;;;8.68;3.35;;;4.60;67.40;;;;;;5035182;28;20028;-49
2022/03/12 00:52:05;;;;;;;5.97;3.17;;;4.70;68.40;;;;;;5035218;28;20025;-47
2022/03/12 00:54:31;;;;;;;7.63;3.38;;;4.70;67.00;;;;;;5033820;28;20076;-49
2022/03/12 00:56:57;;;;;;;9.07;3.65;;;4.70;66.90;;;;;;5034917;28;20029;-47
2022/03/12 00:59:23;;;;;;;9.48;3.90;;;4.70;68.90;;;;;;5035223;28;20082;-47
2022/03/12 01:01:50;;;;;;;9.45;3.75;;;4.60;72.00;;;;;;5035139;28;20029;-47
2022/03/12 01:04:16;;;;;;;6.95;3.78;;;4.40;71.80;;;;;;5035343;28;20022;-50
2022/03/12 01:06:42;;;;;;;12.63;3.85;;;4.30;73.70;;;;;;5033743;28;20101;-50
2022/03/12 01:09:10;;;;;;;5.63;2.78;;;4.20;73.60;;;;;;5033840;28;20025;-50
2022/03/12 01:11:36;;;;;;;10.20;3.22;;;4.10;71.30;;;;;;5033692;28;20056;-50
2022/03/12 01:14:02;;;;;;;7.63;3.53;;;4.20;69.30;;;;;;5035059;28;20103;-49
2022/03/12 01:16:28;;;;;;;5.05;2.95;;;4.40;67.50;;;;;;5033335;28;20096;-49
2022/03/12 01:18:53;;;;;;;6.35;3.40;;;4.50;67.30;;;;;;5034579;28;20022;-50
2022/03/12 01:21:20;;;;;;;8.93;4.25;;;4.70;66.60;;;;;;5033926;28;20057;-48
2022/03/12 01:23:48;;;;;;;8.30;4.05;;;4.80;66.40;;;;;;5033586;28;20036;-50
2022/03/12 01:26:14;;;;;;;5.78;3.33;;;4.80;66.00;;;;;;5033164;28;20031;-50
2022/03/12 01:28:40;;;;;;;7.10;3.47;;;5.00;65.00;;;;;;5033164;28;20021;-47
2022/03/12 01:31:06;;;;;;;6.97;3.80;;;5.00;63.90;;;;;;5033092;28;20021;-50
2022/03/12 01:33:32;;;;;;;7.70;3.25;;;4.90;63.30;;;;;;5033108;28;20395;-50
2022/03/12 01:35:58;;;;;;;8.85;3.42;;;4.90;63.40;;;;;;5033130;28;20026;-49
2022/03/12 01:38:32;;;;;;;6.60;3.47;;;4.90;63.30;;;;;;5034288;28;20021;-48
2022/03/12 01:41:02;;;;;;;7.82;3.15;;;5.00;64.40;;;;;;5034154;28;20092;-49
2022/03/12 01:43:31;;;;;;;4.50;2.67;;;5.00;64.50;;;;;;5033460;28;20026;-50
2022/03/12 01:46:00;;;;;;;6.28;2.95;;;5.00;64.70;;;;;;5032768;28;20055;-48
2022/03/12 01:48:26;;;;;;;6.03;2.88;;;4.90;64.30;;;;;;5033116;28;20025;-47
2022/03/12 01:50:52;;;;;;;11.80;3.58;;;4.90;65.00;;;;;;5034167;28;20025;-49
2022/03/12 01:53:18;;;;;;;9.57;3.50;;;4.70;65.20;;;;;;5032686;28;20032;-47
2022/03/12 01:55:43;;;;;;;7.28;3.33;;;4.60;65.80;;;;;;5032951;28;20036;-49
2022/03/12 01:58:09;;;;;;;8.32;3.55;;;4.60;66.80;;;;;;5032655;28;20040;-53
2022/03/12 02:00:47;;;;;;;6.00;2.92;;;4.50;67.50;;;;;;5031894;28;20029;-50
2022/03/12 02:03:14;;;;;;;8.82;3.35;;;4.50;67.80;;;;;;5032794;28;20499;-49
2022/03/12 02:05:40;;;;;;;11.43;3.60;;;4.50;67.90;;;;;;5032560;28;20025;-47
2022/03/12 02:08:11;;;;;;;6.25;3.35;;;4.50;68.30;;;;;;5033854;28;20097;-50
2022/03/12 02:10:37;;;;;;;5.70;3.13;;;4.50;67.10;;;;;;5032559;28;20022;-51
2022/03/12 02:13:03;;;;;;;5.90;3.33;;;4.50;67.00;;;;;;5033953;28;20025;-47
2022/03/12 02:15:28;;;;;;;17.70;4.13;;;4.60;67.50;;;;;;5032543;28;20036;-50
2022/03/12 02:17:54;;;;;;;7.35;3.20;;;4.60;67.60;;;;;;5033338;28;20029;-53
2022/03/12 02:20:21;;;;;;;5.32;2.90;;;4.60;67.50;;;;;;5033873;28;20056;-47
2022/03/12 02:22:51;;;;;;;8.63;4.47;;;4.60;67.30;;;;;;5033274;28;20072;-50
2022/03/12 02:25:17;;;;;;;9.30;3.42;;;4.60;66.40;;;;;;5032178;28;20025;-47
2022/03/12 02:27:43;;;;;;;12.88;4.07;;;4.60;66.90;;;;;;5032316;28;20029;-50
2022/03/12 02:30:09;;;;;;;6.45;3.25;;;4.60;66.40;;;;;;5033439;28;20384;-52
2022/03/12 02:32:58;;;;;;;9.07;3.30;;;4.60;66.50;;;;;;5032635;28;20029;-46
2022/03/12 02:35:24;;;;;;;9.63;3.85;;;4.70;67.00;;;;;;5033801;28;20029;-47
2022/03/12 02:37:50;;;;;;;8.18;3.42;;;4.70;66.90;;;;;;5033520;28;20064;-46
2022/03/12 02:40:16;;;;;;;6.68;3.15;;;4.80;67.90;;;;;;5033928;28;20032;-46
2022/03/12 02:42:42;;;;;;;14.10;3.85;;;4.80;67.00;;;;;;5032257;28;20026;-48
2022/03/12 02:45:09;;;;;;;9.57;3.65;;;4.70;67.10;;;;;;5033313;28;20037;-46
2022/03/12 02:47:39;;;;;;;6.88;3.42;;;4.70;67.30;;;;;;5032183;28;20055;-49
2022/03/12 02:50:09;;;;;;;7.07;3.70;;;4.70;67.80;;;;;;5033387;28;20040;-48
2022/03/12 02:52:39;;;;;;;6.45;3.45;;;4.60;67.80;;;;;;5032390;28;20079;-48
2022/03/12 02:55:06;;;;;;;8.95;3.00;;;4.60;68.30;;;;;;5033481;28;20494;-51
2022/03/12 02:57:32;;;;;;;5.93;3.08;;;4.70;68.30;;;;;;5033351;28;20162;-52
2022/03/12 03:00:04;;;;;;;6.28;3.25;;;4.70;68.00;;;;;;5032102;28;20026;-52
2022/03/12 03:02:41;;;;;;;6.28;3.72;;;4.80;68.50;;;;;;5032015;28;20026;-46
2022/03/12 03:05:13;;;;;;;6.93;3.47;;;4.90;67.90;;;;;;5031868;28;20022;-46
2022/03/12 03:07:39;;;;;;;;;;;4.90;67.30;;;;;;5033479;28;20068;-46
2022/03/12 03:10:05;;;;;;;7.43;3.30;;;5.00;68.60;;;;;;5033095;28;19959;-46
2022/03/12 03:12:31;;;;;;;9.73;3.67;;;5.00;66.00;;;;;;5036873;28;20029;-47
2022/03/12 03:14:57;;;;;;;6.40;3.70;;;5.00;66.50;;;;;;5035703;28;20033;-49
2022/03/12 03:17:24;;;;;;;6.35;3.38;;;5.10;68.10;;;;;;5036938;28;20025;-46
2022/03/12 03:19:51;;;;;;;7.00;3.35;;;5.10;65.70;;;;;;5036894;28;20112;-46
2022/03/12 03:22:17;;;;;;;5.80;3.03;;;5.10;65.20;;;;;;5036842;28;20025;-48
2022/03/12 03:24:43;;;;;;;5.07;3.17;;;5.10;65.40;;;;;;5036951;28;20120;-46
2022/03/12 03:27:09;;;;;;;9.30;3.13;;;5.10;65.70;;;;;;5036927;28;20051;-47
2022/03/12 03:29:34;;;;;;;5.80;3.15;;;5.10;66.50;;;;;;5036641;28;20026;-46
2022/03/12 03:32:01;;;;;;;5.72;3.05;;;5.20;66.10;;;;;;5035643;28;20025;-51
2022/03/12 03:34:27;;;;;;;11.90;4.35;;;5.30;66.40;;;;;;5036619;28;20032;-47
2022/03/12 03:36:55;;;;;;;7.22;3.60;;;5.40;66.10;;;;;;5035355;28;20116;-47
2022/03/12 03:39:21;;;;;;;8.82;3.38;;;5.40;66.10;;;;;;5036694;28;20021;-53
2022/03/12 03:41:47;;;;;;;9.13;3.85;;;5.30;64.80;;;;;;5036478;28;20164;-46
2022/03/12 03:44:13;;;;;;;8.20;3.53;;;5.10;65.00;;;;;;5035562;28;20044;-48
2022/03/12 03:46:39;;;;;;;8.15;3.45;;;5.10;65.50;;;;;;5036385;28;20077;-48
2022/03/12 03:49:06;;;;;;;8.35;3.50;;;5.10;65.60;;;;;;5036406;28;20105;-51
2022/03/12 03:51:40;;;;;;;6.00;3.22;;;5.10;65.60;;;;;;5035174;28;20025;-47
2022/03/12 03:54:08;;;;;;;5.07;2.97;;;5.10;66.30;;;;;;5035119;28;20017;-47
2022/03/12 03:56:34;;;;;;;7.75;3.70;;;5.10;65.80;;;;;;5035006;28;20018;-46
2022/03/12 03:58:59;;;;;;;8.75;3.38;;;5.20;65.00;;;;;;5034905;28;20022;-46
2022/03/12 04:01:26;;;;;;;7.55;3.22;;;5.10;65.90;;;;;;5036185;28;20025;-46
2022/03/12 04:03:51;;;;;;;6.05;3.28;;;5.10;66.90;;;;;;5035582;28;20076;-46
2022/03/12 04:06:22;;;;;;;7.13;3.58;;;5.20;66.20;;;;;;5034814;28;20021;-46
2022/03/12 04:08:49;;;;;;;6.70;3.05;;;5.20;64.80;;;;;;5035363;28;20034;-47
2022/03/12 04:11:17;;;;;;;6.30;3.03;;;5.30;65.20;;;;;;5034940;28;20045;-47
2022/03/12 04:13:44;;;;;;;8.85;3.85;;;5.20;65.60;;;;;;5036185;28;20021;-47
2022/03/12 04:16:10;;;;;;;8.38;3.35;;;5.10;65.40;;;;;;5036102;28;20017;-46
2022/03/12 04:18:40;;;;;;;6.43;3.58;;;5.30;67.30;;;;;;5034663;28;20033;-47
2022/03/12 04:21:07;;;;;;;10.40;3.55;;;5.40;65.50;;;;;;5034558;28;20112;-49
2022/03/12 04:23:33;;;;;;;6.50;3.33;;;5.30;65.20;;;;;;5034513;28;20041;-48
2022/03/12 04:25:59;;;;;;;6.45;3.05;;;5.20;64.90;;;;;;5034385;28;20021;-49
2022/03/12 04:28:30;;;;;;;8.27;3.72;;;5.20;65.00;;;;;;5035955;28;20029;-50
2022/03/12 04:30:56;;;;;;;7.03;3.25;;;5.10;65.40;;;;;;5035727;28;20026;-46
2022/03/12 04:33:22;;;;;;;5.53;3.10;;;5.10;65.60;;;;;;5034860;28;20036;-48
2022/03/12 04:35:49;;;;;;;6.90;3.22;;;4.90;64.60;;;;;;5035104;28;20025;-45
2022/03/12 04:38:15;;;;;;;7.25;3.35;;;4.60;64.70;;;;;;5034508;28;20056;-47
2022/03/12 04:40:43;;;;;;;6.43;3.47;;;4.50;65.60;;;;;;5034474;28;20026;-50
2022/03/12 04:43:11;;;;;;;7.43;3.40;;;4.50;65.20;;;;;;5034109;28;20032;-49
2022/03/12 04:45:38;;;;;;;8.00;3.30;;;4.40;64.60;;;;;;5035306;28;20045;-47
2022/03/12 04:48:04;;;;;;;9.30;3.20;;;4.50;65.20;;;;;;5034416;28;20021;-48
2022/03/12 04:50:30;;;;;;;9.93;3.63;;;4.60;66.20;;;;;;5034542;28;20026;-49
2022/03/12 04:52:58;;;;;;;5.65;3.58;;;4.60;64.20;;;;;;5035199;28;20056;-52
2022/03/12 04:55:26;;;;;;;7.72;3.35;;;4.60;64.90;;;;;;5035629;28;20100;-49
2022/03/12 04:57:52;;;;;;;7.28;3.05;;;4.60;65.20;;;;;;5033906;28;20031;-53
2022/03/12 05:00:38;;;;;;;5.43;3.03;;;4.50;65.50;;;;;;5035062;28;20021;-46
2022/03/12 05:03:08;;;;;;;5.65;3.38;;;4.40;65.20;;;;;;5034493;28;20033;-46
2022/03/12 05:05:39;;;;;;;7.82;3.17;;;4.40;64.30;;;;;;5033621;28;20022;-46
2022/03/12 05:08:28;;;;;;;5.00;2.90;;;4.20;64.80;;;;;;5033749;28;20108;-46
2022/03/12 05:10:56;;;;;;;5.13;3.15;;;4.20;64.90;;;;;;5035159;28;20049;-46
2022/03/12 05:13:23;;;;;;;6.03;3.33;;;4.10;64.30;;;;;;5034770;28;20092;-46
2022/03/12 05:15:54;;;;;;;6.32;2.85;;;4.10;63.90;;;;;;5033486;28;20064;-46
2022/03/12 05:18:21;;;;;;;5.75;2.85;;;4.00;63.60;;;;;;5033639;28;20030;-47
2022/03/12 05:20:47;;;;;;;7.90;2.97;;;4.10;64.60;;;;;;5034983;28;20033;-45
2022/03/12 05:23:15;;;;;;;5.63;2.95;;;4.10;63.20;;;;;;5033518;28;20037;-47
2022/03/12 05:25:42;;;;;;;8.18;3.45;;;4.20;63.50;;;;;;5034566;28;20022;-46
2022/03/12 05:28:10;;;;;;;5.00;3.25;;;4.30;63.60;;;;;;5033585;28;20030;-46
2022/03/12 05:30:36;;;;;;;5.90;2.88;;;4.30;64.10;;;;;;5034854;28;20052;-46
2022/03/12 05:33:03;;;;;;;6.82;3.00;;;4.50;63.50;;;;;;5034605;28;20053;-46
2022/03/12 05:35:29;;;;;;;5.25;2.92;;;4.50;64.60;;;;;;5033910;28;20006;-49
2022/03/12 05:37:54;;;;;;;6.97;3.15;;;4.50;62.40;;;;;;5033251;28;20033;-46
2022/03/12 05:40:25;;;;;;;7.35;2.97;;;4.50;64.40;;;;;;5033360;28;20036;-46
2022/03/12 05:42:55;;;;;;;5.65;3.20;;;4.40;63.10;;;;;;5034555;28;20025;-45
2022/03/12 05:45:22;;;;;;;7.20;3.05;;;4.00;64.10;;;;;;5034335;28;20017;-45
2022/03/12 05:47:49;;;;;;;7.57;3.60;;;3.90;64.40;;;;;;5032826;28;20017;-45
2022/03/12 05:50:16;;;;;;;5.85;3.13;;;3.90;65.20;;;;;;5033858;28;20025;-46
2022/03/12 05:52:48;;;;;;;7.93;3.47;;;3.80;65.50;;;;;;5034095;28;20064;-47
2022/03/12 05:55:16;;;;;;;8.50;3.90;;;3.80;65.70;;;;;;5034303;28;20056;-46
2022/03/12 05:57:42;;;;;;;5.45;3.17;;;3.60;65.60;;;;;;5034120;28;20028;-45
2022/03/12 06:00:11;;;;;;;7.63;3.50;;;3.60;66.60;;;;;;5034081;28;20030;-46
2022/03/12 06:02:43;;;;;;;8.48;3.22;;;3.60;66.70;;;;;;5032675;28;20025;-47
2022/03/12 06:05:12;;;;;;;7.28;3.83;;;3.70;65.90;;;;;;5033275;28;20060;-46
2022/03/12 06:07:38;;;;;;;6.90;3.10;;;3.70;67.00;;;;;;5032837;28;20033;-47
2022/03/12 06:10:05;;;;;;;7.00;2.83;;;3.70;66.10;;;;;;5032482;28;20022;-46
2022/03/12 06:12:30;;;;;;;6.47;2.97;;;3.80;66.60;;;;;;5033773;28;20059;-49
2022/03/12 06:14:56;;;;;;;9.38;3.75;;;3.80;66.00;;;;;;5033637;28;20044;-51
2022/03/12 06:17:26;;;;;;;7.18;3.45;;;4.10;67.20;;;;;;5038249;28;20018;-47
2022/03/12 06:19:52;;;;;;;7.07;3.08;;;4.10;65.20;;;;;;5032411;28;20204;-47
2022/03/12 06:22:18;;;;;;;5.90;2.67;;;4.10;65.00;;;;;;5032217;28;20037;-49
2022/03/12 06:24:46;;;;;;;8.05;3.03;;;4.20;64.30;;;;;;5032330;28;20032;-49
2022/03/12 06:27:12;;;;;;;9.43;3.38;;;4.20;64.50;;;;;;5032612;28;20029;-47
2022/03/12 06:29:39;;;;;;;8.30;3.50;;;4.20;65.10;;;;;;5032283;28;20091;-50
2022/03/12 06:32:07;;;;;;;5.32;3.08;;;4.20;65.00;;;;;;5033446;28;20068;-47
2022/03/12 06:34:34;;;;;;;11.27;3.00;;;4.20;65.80;;;;;;5033475;28;20021;-50
2022/03/12 06:37:00;;;;;;;6.28;3.05;;;4.30;65.30;;;;;;5032059;28;20036;-50
2022/03/12 06:39:26;;;;;;;8.73;3.58;;;4.30;66.10;;;;;;5033374;28;20017;-51
2022/03/12 06:41:53;;;;;;;10.10;4.32;;;4.40;65.30;;;;;;5033282;28;20033;-50
2022/03/12 06:44:20;;;;;;;10.43;3.13;;;4.80;64.20;;;;;;5032103;28;20060;-49
2022/03/12 06:46:47;;;;;;;7.82;3.63;;;5.30;62.80;;;;;;5033182;28;20017;-53
2022/03/12 06:49:13;;;;;;;6.82;3.30;;;5.80;60.50;;;;;;5032055;28;20029;-50
2022/03/12 06:51:38;;;;;;;12.68;3.38;;;6.50;60.70;;;;;;5033268;28;20101;-53
2022/03/12 06:54:04;;;;;;;6.38;3.10;;;6.70;59.10;;;;;;5033256;28;20037;-54
2022/03/12 06:56:34;;;;;;;7.55;3.20;;;7.10;58.10;;;;;;5033343;28;20101;-50
2022/03/12 06:58:59;;;;;;;8.43;3.63;;;7.60;58.70;;;;;;5033342;28;20047;-48
2022/03/12 07:01:25;;;;;;;4.35;2.70;;;8.00;56.70;;;;;;5031895;28;20105;-50
2022/03/12 07:03:51;;;;;;;5.95;3.58;;;8.40;59.50;;;;;;5031876;28;20022;-48
2022/03/12 07:06:16;;;;;;;8.40;3.70;;;8.60;56.20;;;;;;5031820;28;20182;-50
2022/03/12 07:08:42;;;;;;;6.10;3.45;;;8.70;54.90;;;;;;5031957;28;20037;-48
2022/03/12 07:11:10;;;;;;;8.32;3.83;;;9.10;55.10;;;;;;5031850;28;20022;-48
2022/03/12 07:13:36;;;;;;;8.80;3.88;;;9.40;54.50;;;;;;5033302;28;20021;-48
2022/03/12 07:16:02;;;;;;;5.05;3.20;;;9.40;55.70;;;;;;5031791;28;20029;-48
2022/03/12 07:18:28;;;;;;;7.43;3.42;;;10.00;55.50;;;;;;5031727;28;20426;-49
2022/03/12 07:20:54;;;;;;;6.15;3.33;;;10.70;53.70;;;;;;5033012;28;20104;-50
2022/03/12 07:23:20;;;;;;;7.65;3.28;;;10.80;52.30;;;;;;5033691;28;20029;-49
2022/03/12 07:25:46;;;;;;;7.78;3.13;;;10.80;52.10;;;;;;5032543;28;20021;-53
2022/03/12 07:28:17;;;;;;;7.15;3.88;;;11.10;52.60;;;;;;5031812;28;20032;-49
2022/03/12 07:30:43;;;;;;;6.22;3.17;;;11.50;52.10;;;;;;5031679;28;20022;-51
2022/03/12 07:33:09;;;;;;;7.22;3.80;;;11.60;51.50;;;;;;5033246;28;20037;-50
2022/03/12 07:35:35;;;;;;;6.30;3.78;;;11.70;51.50;;;;;;5032790;28;20021;-50
2022/03/12 07:38:01;;;;;;;6.35;3.83;;;11.80;50.90;;;;;;5031978;28;20022;-48
2022/03/12 07:40:27;;;;;;;9.30;3.92;;;12.00;51.80;;;;;;5033166;28;20022;-48
2022/03/12 07:42:52;;;;;;;5.72;3.70;;;12.50;52.10;;;;;;5032819;28;20443;-50
2022/03/12 07:45:19;;;;;;;5.43;3.60;;;12.20;50.00;;;;;;5032649;28;20097;-49
2022/03/12 07:47:47;;;;;;;7.05;3.80;;;12.10;51.30;;;;;;5032815;28;20045;-48
2022/03/12 07:50:13;;;;;;;8.52;3.88;;;12.00;50.60;;;;;;5031523;28;20026;-50
2022/03/12 07:52:40;;;;;;;6.32;3.85;;;11.90;51.30;;;;;;5031577;28;20036;-49
2022/03/12 07:55:07;;;;;;;7.40;3.63;;;11.80;50.20;;;;;;5031652;28;20026;-48
2022/03/12 07:57:33;;;;;;;6.35;3.45;;;11.80;51.10;;;;;;5033776;28;20029;-50
2022/03/12 07:59:59;;;;;;;6.10;3.33;;;11.40;51.00;;;;;;5036055;28;20052;-48
2022/03/12 08:02:25;;;;;;;7.85;4.07;;;11.80;51.50;;;;;;5035148;28;20116;-48
2022/03/12 08:04:50;;;;;;;10.20;3.97;;;11.90;50.70;;;;;;5035168;28;20071;-49
2022/03/12 08:07:16;;;;;;;6.80;4.10;;;11.50;51.40;;;;;;5035474;28;20045;-47
2022/03/12 08:09:42;;;;;;;6.13;3.60;;;12.10;51.60;;;;;;5034997;28;20052;-47
2022/03/12 08:12:08;;;;;;;8.35;4.18;;;12.80;50.80;;;;;;5036200;28;20494;-47
2022/03/12 08:14:34;;;;;;;8.77;3.97;;;13.10;50.80;;;;;;5036567;28;20105;-47
2022/03/12 08:17:00;;;;;;;6.65;3.95;;;13.70;51.20;;;;;;5036090;28;20049;-48
2022/03/12 08:19:26;;;;;;;5.97;3.80;;;13.80;49.40;;;;;;5035921;28;20025;-47
2022/03/12 08:21:52;;;;;;;7.90;3.90;;;13.70;49.90;;;;;;5035686;28;20476;-48
2022/03/12 08:24:20;;;;;;;7.72;4.05;;;14.10;49.70;;;;;;5036007;28;20056;-47
2022/03/12 08:26:48;;;;;;;9.80;4.18;;;13.80;49.30;;;;;;5034530;28;20116;-47
2022/03/12 08:29:15;;;;;;;12.05;4.43;;;14.10;49.50;;;;;;5034481;28;20032;-48
2022/03/12 08:31:41;;;;;;;6.70;3.92;;;13.30;49.90;;;;;;5035700;28;20017;-50
2022/03/12 08:34:09;;;;;;;8.25;4.32;;;12.80;50.50;;;;;;5035924;28;20078;-57
2022/03/12 08:36:35;;;;;;;7.45;4.38;;;13.70;51.10;;;;;;5035602;28;20022;-53
2022/03/12 08:39:01;;;;;;;8.00;4.40;;;13.90;50.50;;;;;;5035036;28;20079;-55
2022/03/12 08:41:27;;;;;;;12.68;5.43;;;14.20;49.90;;;;;;5034179;28;20124;-55
2022/03/12 08:43:53;;;;;;;6.80;4.38;;;14.90;51.00;;;;;;5034087;28;20026;-53
2022/03/12 08:46:18;;;;;;;9.25;4.68;;;15.70;48.60;;;;;;5034024;28;20025;-55
2022/03/12 08:48:44;;;;;;;8.13;4.75;;;16.30;48.50;;;;;;5034720;28;20026;-55
2022/03/12 08:51:10;;;;;;;10.95;4.80;;;16.10;47.30;;;;;;5035492;28;20022;-50
2022/03/12 08:53:36;;;;;;;7.68;4.32;;;16.40;48.00;;;;;;5035309;28;20041;-51
2022/03/12 08:56:03;;;;;;;9.98;4.72;;;17.60;48.40;;;;;;5034106;28;20029;-55
2022/03/12 08:58:30;;;;;;;8.30;4.63;;;18.00;45.80;;;;;;5034175;28;20037;-49
2022/03/12 09:00:57;;;;;;;6.00;4.63;;;17.90;46.70;;;;;;5033944;28;20112;-49
2022/03/12 09:03:23;;;;;;;9.38;4.70;;;18.40;46.90;;;;;;5035015;28;20030;-49
2022/03/12 09:05:50;;;;;;;6.22;4.93;;;17.40;46.10;;;;;;5034945;28;20067;-49
2022/03/12 09:08:17;;;;;;;7.18;5.22;;;16.70;46.60;;;;;;5033653;28;20022;-49
2022/03/12 09:10:43;;;;;;;7.28;4.40;;;15.50;47.30;;;;;;5035152;28;20018;-48
2022/03/12 09:13:13;;;;;;;16.02;4.45;;;14.90;48.50;;;;;;5034693;28;20112;-48
2022/03/12 09:15:40;;;;;;;8.93;5.20;;;15.80;49.40;;;;;;5033948;28;20035;-49
2022/03/12 09:18:07;;;;;;;9.05;4.93;;;16.20;48.00;;;;;;5034814;28;20021;-49
2022/03/12 09:20:42;;;;;;;9.65;4.72;;;16.80;47.60;;;;;;5033781;28;20021;-51
2022/03/12 09:23:08;;;;;;;8.07;5.15;;;17.50;47.30;;;;;;5033848;28;20048;-50
2022/03/12 09:25:33;;;;;;;9.02;4.90;;;18.40;47.40;;;;;;5036608;28;20033;-49
2022/03/12 09:27:59;;;;;;;6.88;4.90;;;20.10;47.40;;;;;;5034834;28;20025;-50
2022/03/12 09:30:25;;;;;;;8.63;5.30;;;20.90;47.10;;;;;;5034658;28;20064;-50
2022/03/12 09:32:51;;;;;;;8.60;5.80;;;21.40;43.40;;;;;;5034723;28;20021;-48
2022/03/12 09:35:19;;;;;;;8.85;6.07;;;21.20;43.60;;;;;;5033283;28;20109;-49
2022/03/12 09:37:45;;;;;;;8.52;5.32;;;19.90;45.00;;;;;;5035229;28;20045;-48
2022/03/12 09:40:11;;;;;;;9.25;5.78;;;18.40;44.80;;;;;;5033306;28;20079;-48
2022/03/12 09:42:37;;;;;;;9.38;5.25;;;18.00;45.40;;;;;;5034475;28;20037;-49
2022/03/12 09:45:03;;;;;;;8.20;5.70;;;19.30;48.40;;;;;;5034694;28;20021;-53
2022/03/12 09:47:29;;;;;;;9.18;6.20;;;19.90;47.70;;;;;;5034472;28;20022;-53
2022/03/12 09:49:55;;;;;;;8.07;4.95;;;19.40;44.90;;;;;;5033241;28;20047;-48
2022/03/12 09:52:21;;;;;;;8.68;4.93;;;18.70;47.30;;;;;;5033492;28;20021;-48
2022/03/12 09:54:47;;;;;;;8.73;5.80;;;19.50;48.50;;;;;;5033335;28;20080;-50
2022/03/12 09:57:13;;;;;;;8.93;5.40;;;20.40;44.10;;;;;;5032674;28;20125;-48
2022/03/12 09:59:39;;;;;;;11.57;6.10;;;19.60;45.20;;;;;;5033080;28;20435;-48
2022/03/12 10:02:05;;;;;;;10.80;5.90;;;19.40;45.60;;;;;;5034294;28;20021;-53
2022/03/12 10:04:31;;;;;;;7.05;5.10;;;19.80;44.90;;;;;;5033958;28;20021;-48
2022/03/12 10:06:57;;;;;;;12.18;5.22;;;19.80;46.90;;;;;;5032558;28;20017;-49
2022/03/12 10:09:23;;;;;;;8.20;5.07;;;19.10;47.20;;;;;;5032657;28;20026;-48
2022/03/12 10:11:52;;;;;;;9.68;5.72;;;19.40;46.70;;;;;;5033744;28;20097;-50
2022/03/12 10:14:18;;;;;;;9.82;5.75;;;19.30;46.50;;;;;;5033577;28;20025;-49
2022/03/12 10:16:44;;;;;;;10.27;5.80;;;18.70;46.20;;;;;;5034355;28;20032;-49
2022/03/12 10:19:09;;;;;;;10.32;5.78;;;17.00;47.60;;;;;;5034030;28;20022;-48
2022/03/12 10:21:42;;;;;;;8.68;5.60;;;15.40;49.50;;;;;;5032860;28;20048;-52
2022/03/12 10:24:13;;;;;;;8.82;5.00;;;14.50;51.40;;;;;;5033578;28;20123;-53
2022/03/12 10:26:39;;;;;;;8.77;6.15;;;14.60;53.40;;;;;;5032220;28;20021;-55
2022/03/12 10:29:09;;;;;;;8.82;4.07;;;15.00;52.60;;;;;;5032225;28;20022;-54
2022/03/12 10:31:35;;;;;;;9.80;5.35;;;15.50;55.00;;;;;;5033576;28;20020;-50
2022/03/12 10:34:24;;;;;;;8.40;4.85;;;15.40;51.70;;;;;;5032783;28;20021;-52
2022/03/12 10:36:55;;;;;;;11.20;5.35;;;15.20;52.20;;;;;;5033539;28;20033;-54
2022/03/12 10:39:35;;;;;;;7.68;4.57;;;14.50;53.10;;;;;;5033907;28;20060;-56
2022/03/12 10:42:02;;;;;;;8.45;4.72;;;14.50;55.30;;;;;;5032447;28;20040;-54
2022/03/12 10:44:39;;;;;;;10.15;4.80;;;14.00;54.00;;;;;;5033321;28;20029;-54
2022/03/12 10:47:24;;;;;;;9.27;5.25;;;13.80;56.40;;;;;;5032878;28;20044;-56
2022/03/12 10:50:05;;;;;;;11.35;5.00;;;14.10;55.70;;;;;;5032407;28;20018;-56
2022/03/12 10:52:34;;;;;;;11.00;5.35;;;14.40;56.30;;;;;;5033482;28;20049;-56
2022/03/12 10:55:18;;;;;;;9.48;4.88;;;14.80;56.10;;;;;;5033372;28;20108;-56
2022/03/12 10:58:08;;;;;;;10.15;5.20;;;15.30;56.10;;;;;;5032985;28;20034;-51
2022/03/12 11:00:38;;;;;;;7.53;4.55;;;15.60;58.10;;;;;;5032272;28;20021;-55
2022/03/12 11:03:12;;;;;;;10.70;6.30;;;15.60;55.80;;;;;;5033390;28;20029;-55
2022/03/12 11:05:38;;;;;;;11.52;5.90;;;14.90;55.90;;;;;;5033237;28;20021;-55
2022/03/12 11:08:16;;;;;;;8.60;5.25;;;13.90;56.30;;;;;;5032323;28;20060;-55
2022/03/12 11:10:58;;;;;;;9.73;5.43;;;13.50;57.90;;;;;;5032108;28;20026;-56
2022/03/12 11:13:34;;;;;;;;;;;13.40;58.80;;;;;;5033448;28;20053;-52
2022/03/12 11:16:24;;;;;;;8.73;4.68;;;12.60;58.60;;;;;;5033146;28;19905;-50
2022/03/12 11:18:52;;;;;;;8.25;5.30;;;12.10;59.90;;;;;;5033082;28;20026;-49
2022/03/12 11:21:37;;;;;;;8.98;4.95;;;11.80;60.00;;;;;;5032019;28;20036;-48
2022/03/12 11:24:22;;;;;;;8.90;5.45;;;11.90;61.70;;;;;;5032819;28;20431;-48
2022/03/12 11:26:55;;;;;;;9.60;5.50;;;11.90;61.60;;;;;;5031850;28;20026;-49
2022/03/12 11:29:23;;;;;;;9.57;5.18;;;12.20;62.40;;;;;;5031774;28;20543;-50
2022/03/12 11:32:05;;;;;;;8.77;4.70;;;11.90;61.70;;;;;;5032705;28;20144;-48
2022/03/12 11:34:34;;;;;;;12.75;5.35;;;11.90;62.40;;;;;;5037035;28;20013;-48
2022/03/12 11:37:08;;;;;;;8.45;4.97;;;12.10;62.50;;;;;;5035627;28;20025;-49
2022/03/12 11:39:39;;;;;;;10.27;5.13;;;12.60;64.10;;;;;;5036680;28;20014;-53
2022/03/12 11:42:17;;;;;;;12.85;5.38;;;12.70;61.60;;;;;;5036680;28;20021;-50
2022/03/12 11:44:50;;;;;;;10.80;4.47;;;12.80;61.50;;;;;;5035882;28;20029;-48
2022/03/12 11:47:19;;;;;;;11.60;5.38;;;12.90;63.80;;;;;;5037772;28;20018;-48
2022/03/12 11:53:07;;;;;;;9.80;4.18;;;12.70;61.70;;;;;;5056331;28;20032;-52
2022/03/12 11:55:34;;;;;;;7.93;4.47;;;13.00;64.20;;;;;;5055056;28;20031;-48
2022/03/12 11:57:59;;;;;;;9.65;5.15;;;13.20;64.10;;;;;;5055089;28;20025;-48
2022/03/12 12:00:57;;;;;;;11.73;6.03;;;13.50;63.10;;;;;;5055306;28;20530;-50
2022/03/12 12:03:23;;;;;;;9.13;5.00;;;13.70;63.20;;;;;;5055681;28;20116;-53
2022/03/12 12:05:49;;;;;;;12.00;4.68;;;13.80;63.50;;;;;;5056313;28;20052;-48
2022/03/12 12:08:15;;;;;;;13.77;5.90;;;14.00;63.70;;;;;;5055202;28;20017;-49
2022/03/12 12:10:43;;;;;;;11.30;5.72;;;13.70;62.40;;;;;;5055196;28;20048;-49
2022/03/12 12:13:13;;;;;;;11.02;5.47;;;13.40;62.70;;;;;;5055954;28;20029;-48
2022/03/12 12:15:41;;;;;;;11.30;5.57;;;13.20;64.00;;;;;;5056010;28;20112;-49
2022/03/12 12:18:08;;;;;;;14.70;5.60;;;12.90;63.70;;;;;;5056191;28;20025;-50
2022/03/12 12:20:34;;;;;;;9.90;5.38;;;12.70;64.40;;;;;;5054019;28;20124;-49
2022/03/12 12:23:01;;;;;;;10.43;5.40;;;12.80;66.10;;;;;;5054385;28;20029;-48
2022/03/12 12:25:35;;;;;;;10.75;5.50;;;13.00;65.10;;;;;;5048588;28;20025;-48
2022/03/12 12:28:38;;;;;;;10.25;5.45;;;13.00;64.10;;;;;;5034482;28;20028;-47
2022/03/12 12:31:17;;;;;;;10.90;5.55;;;12.70;64.70;;;;;;5037754;28;20148;-48
2022/03/12 12:33:43;;;;;;;7.95;4.82;;;12.80;66.30;;;;;;5055920;28;20049;-50
2022/03/12 12:36:13;;;;;;;11.10;5.32;;;12.90;66.60;;;;;;5054870;28;20025;-50
2022/03/12 12:38:40;;;;;;;11.48;5.97;;;13.00;65.70;;;;;;5054225;28;20029;-50
2022/03/12 12:41:10;;;;;;;11.77;6.20;;;13.20;66.10;;;;;;5054428;28;20029;-48
2022/03/12 12:43:45;;;;;;;10.70;6.20;;;13.00;65.60;;;;;;5054372;28;20025;-50
2022/03/12 12:46:17;;;;;;;10.38;5.65;;;12.80;66.70;;;;;;5055325;28;20017;-51
2022/03/12 12:48:50;;;;;;;10.38;5.72;;;13.00;67.50;;;;;;5054061;28;20051;-51
2022/03/12 12:51:21;;;;;;;12.60;6.88;;;13.20;66.60;;;;;;5054081;28;20021;-55
2022/03/12 12:53:55;;;;;;;11.63;6.50;;;12.90;66.80;;;;;;5053994;28;20031;-52
2022/03/12 12:56:40;;;;;;;13.60;5.65;;;12.90;69.50;;;;;;5038816;28;20026;-50
2022/03/12 12:59:11;;;;;;;15.18;5.63;;;13.10;68.40;;;;;;5035759;28;20101;-53